Time;durP1;ratioP1;P1;durP2;ratioP2;P2;SDS_P1;SDS_P2;PMS_P1;PMS_P2;Temp;Humidity;BMP_temperature;BMP_pressure;BME280_temperature;BME280_humidity;BME280_pressure;Samples;Min_cycle;Max_cycle;Signal;HPM_P1;HPM_P2
2021/06/26 00:03:40;;;;;;;4.80;4.30;;;17.40;70.90;;;;;;10380856;28;20207;-29
2021/06/26 00:09:03;;;;;;;4.47;4.00;;;17.00;72.40;;;;;;10409938;28;20219;-28
2021/06/26 00:14:25;;;;;;;4.67;3.97;;;16.70;73.50;;;;;;10410297;28;20281;-28
2021/06/26 00:19:48;;;;;;;4.43;4.07;;;16.50;74.60;;;;;;10470688;22;20221;-31
2021/06/26 00:25:12;;;;;;;4.70;4.30;;;16.60;74.40;;;;;;10499180;28;20203;-30
2021/06/26 00:30:34;;;;;;;4.63;3.83;;;16.70;73.50;;;;;;10490991;28;20219;-35
2021/06/26 00:35:58;;;;;;;4.90;4.40;;;16.40;74.50;;;;;;10470858;28;20220;-29
2021/06/26 00:41:20;;;;;;;4.90;4.50;;;16.30;75.40;;;;;;10457251;28;20593;-33
2021/06/26 00:46:42;;;;;;;4.60;4.20;;;16.70;73.50;;;;;;10416710;28;20190;-33
2021/06/26 00:52:06;;;;;;;6.17;5.27;;;16.40;74.10;;;;;;10419305;28;20224;-29
2021/06/26 00:57:30;;;;;;;7.33;4.70;;;16.70;73.00;;;;;;10418384;28;20231;-33
2021/06/26 01:02:52;;;;;;;5.70;5.10;;;16.80;71.80;;;;;;10416860;28;20218;-33
2021/06/26 01:08:16;;;;;;;5.80;5.20;;;16.40;73.10;;;;;;10428412;28;20572;-31
2021/06/26 01:13:38;;;;;;;4.70;4.30;;;16.20;75.00;;;;;;10475185;28;20215;-34
2021/06/26 01:19:00;;;;;;;5.27;4.40;;;16.30;74.20;;;;;;10456792;28;20224;-35
2021/06/26 01:24:24;;;;;;;4.60;4.20;;;16.20;73.90;;;;;;10498796;28;20231;-33
2021/06/26 01:29:49;;;;;;;5.20;4.70;;;16.40;72.50;;;;;;10497671;28;20208;-34
2021/06/26 01:35:12;;;;;;;4.27;3.97;;;16.30;73.40;;;;;;10498898;28;20207;-32
2021/06/26 01:40:35;;;;;;;5.10;4.60;;;16.50;72.10;;;;;;10433375;28;20251;-35
2021/06/26 01:45:57;;;;;;;5.13;4.73;;;16.60;71.60;;;;;;10415594;28;20198;-31
2021/06/26 01:51:20;;;;;;;5.20;4.80;;;16.30;72.20;;;;;;10414558;28;20227;-34
2021/06/26 01:56:43;;;;;;;5.00;4.47;;;16.20;73.20;;;;;;10416057;28;20220;-31
2021/06/26 02:02:05;;;;;;;5.23;4.83;;;15.90;74.40;;;;;;10415251;28;20217;-31
2021/06/26 02:07:28;;;;;;;5.30;4.80;;;15.70;75.30;;;;;;10413891;28;20193;-34
2021/06/26 02:12:51;;;;;;;5.17;4.67;;;15.70;75.30;;;;;;10460058;28;20216;-34
2021/06/26 02:18:13;;;;;;;4.97;4.47;;;15.60;75.30;;;;;;10440562;28;20558;-31
2021/06/26 02:23:39;;;;;;;5.03;4.63;;;15.40;75.70;;;;;;10482953;28;20686;-29
2021/06/26 02:29:03;;;;;;;5.30;4.60;;;15.40;76.20;;;;;;10496148;28;20241;-29
2021/06/26 02:34:25;;;;;;;4.40;4.00;;;15.40;76.20;;;;;;10496039;28;20668;-32
2021/06/26 02:39:47;;;;;;;4.57;4.17;;;15.50;76.00;;;;;;10438426;28;20220;-30
2021/06/26 02:45:11;;;;;;;5.23;4.73;;;15.70;74.50;;;;;;10471169;28;20205;-28
2021/06/26 02:50:34;;;;;;;5.30;4.40;;;15.80;73.70;;;;;;10494553;28;20700;-30
2021/06/26 02:55:56;;;;;;;5.33;4.57;;;16.10;72.20;;;;;;10422052;28;20196;-32
2021/06/26 03:01:19;;;;;;;5.23;4.70;;;15.80;72.60;;;;;;10411623;28;20216;-31
2021/06/26 03:06:41;;;;;;;5.20;4.13;;;15.40;74.20;;;;;;10413985;28;20191;-34
2021/06/26 03:12:05;;;;;;;3.90;3.60;;;15.20;75.20;;;;;;10487054;28;20224;-31
2021/06/26 03:17:28;;;;;;;4.77;4.13;;;15.10;75.50;;;;;;10483340;28;20222;-30
2021/06/26 03:22:50;;;;;;;5.43;4.37;;;15.00;75.70;;;;;;10456551;28;20542;-33
2021/06/26 03:28:12;;;;;;;4.17;3.87;;;15.00;76.00;;;;;;10419926;28;20658;-31
2021/06/26 03:33:36;;;;;;;4.30;4.00;;;15.30;75.10;;;;;;10411091;28;20210;-33
2021/06/26 03:38:58;;;;;;;4.70;4.30;;;15.50;74.30;;;;;;10410573;28;20227;-31
2021/06/26 03:44:20;;;;;;;4.93;4.47;;;15.70;73.10;;;;;;10410430;28;20227;-35
2021/06/26 03:49:43;;;;;;;5.50;4.60;;;15.80;72.90;;;;;;10410304;28;20218;-34
2021/06/26 03:55:07;;;;;;;7.67;5.20;;;15.90;72.80;;;;;;10411051;28;20205;-32
2021/06/26 04:00:29;;;;;;;6.60;5.83;;;15.80;73.30;;;;;;10411881;28;20612;-36
2021/06/26 04:05:53;;;;;;;6.07;5.53;;;15.80;73.80;;;;;;10411334;28;20201;-33
2021/06/26 04:11:15;;;;;;;6.57;5.97;;;16.00;72.60;;;;;;10457414;28;20217;-31
2021/06/26 04:16:37;;;;;;;5.77;4.97;;;15.90;73.90;;;;;;10471694;28;20203;-33
2021/06/26 04:22:01;;;;;;;6.17;4.73;;;16.00;73.80;;;;;;10471833;28;20218;-35
2021/06/26 04:27:23;;;;;;;5.20;4.73;;;16.20;72.90;;;;;;10492532;28;20206;-33
2021/06/26 04:32:45;;;;;;;5.70;5.00;;;16.40;72.70;;;;;;10445175;28;20235;-32
2021/06/26 04:38:09;;;;;;;5.97;5.30;;;16.50;72.20;;;;;;10421794;28;20216;-29
2021/06/26 04:43:32;;;;;;;5.67;5.07;;;16.40;73.90;;;;;;10429278;28;20201;-31
2021/06/26 04:48:54;;;;;;;5.83;5.33;;;16.50;74.40;;;;;;10410258;28;20593;-34
2021/06/26 04:54:17;;;;;;;5.77;5.17;;;16.70;72.80;;;;;;10410087;28;20199;-32
2021/06/26 04:59:39;;;;;;;6.60;5.40;;;16.90;72.50;;;;;;10433631;28;20723;-33
2021/06/26 05:05:01;;;;;;;6.73;6.07;;;17.00;71.80;;;;;;10415845;28;20666;-31
2021/06/26 05:10:25;;;;;;;7.60;6.20;;;17.10;71.90;;;;;;10447145;28;20224;-30
2021/06/26 05:15:47;;;;;;;7.57;6.87;;;17.20;71.70;;;;;;10478102;28;20192;-31
2021/06/26 05:21:09;;;;;;;6.70;6.10;;;17.40;72.70;;;;;;10446784;28;20221;-31
2021/06/26 05:26:33;;;;;;;7.73;7.00;;;17.40;72.10;;;;;;10472798;28;20709;-31
2021/06/26 05:31:55;;;;;;;7.03;6.40;;;17.50;72.10;;;;;;10497971;28;20216;-30
2021/06/26 05:37:17;;;;;;;7.60;6.90;;;17.60;71.70;;;;;;10497830;28;20224;-29
2021/06/26 05:42:40;;;;;;;7.23;6.50;;;17.70;71.20;;;;;;10497755;28;20224;-32
2021/06/26 05:48:02;;;;;;;7.67;6.63;;;17.80;71.30;;;;;;10490658;28;20189;-36
2021/06/26 05:53:25;;;;;;;7.53;6.70;;;17.90;71.50;;;;;;10450562;28;20197;-30
2021/06/26 05:58:48;;;;;;;7.50;6.87;;;17.90;71.80;;;;;;10449283;28;20694;-34
2021/06/26 06:04:10;;;;;;;8.30;7.50;;;18.00;72.10;;;;;;10443753;28;20548;-29
2021/06/26 06:09:33;;;;;;;10.70;7.10;;;18.00;72.40;;;;;;10438144;28;20219;-31
2021/06/26 06:14:56;;;;;;;8.07;7.27;;;18.10;72.50;;;;;;10445344;28;20212;-33
2021/06/26 06:20:18;;;;;;;7.97;7.27;;;18.10;72.50;;;;;;10471927;22;20224;-30
2021/06/26 06:25:40;;;;;;;10.27;7.37;;;18.20;72.60;;;;;;10481992;28;20209;-28
2021/06/26 06:31:04;;;;;;;8.57;7.50;;;18.30;72.90;;;;;;10469400;28;20221;-30
2021/06/26 06:36:26;;;;;;;9.03;6.93;;;18.30;72.80;;;;;;10412528;28;20193;-28
2021/06/26 06:41:48;;;;;;;7.43;6.73;;;18.40;72.70;;;;;;10445415;28;20225;-28
2021/06/26 06:47:12;;;;;;;6.43;5.77;;;18.40;72.40;;;;;;10453788;28;20196;-28
2021/06/26 06:52:34;;;;;;;5.80;5.30;;;18.50;72.10;;;;;;10453464;28;20228;-28
2021/06/26 06:57:56;;;;;;;6.33;5.73;;;18.50;71.80;;;;;;10453105;28;20213;-28
2021/06/26 07:03:19;;;;;;;5.70;5.20;;;18.60;71.90;;;;;;10452949;28;20213;-29
2021/06/26 07:08:41;;;;;;;5.03;4.53;;;18.60;71.70;;;;;;10428548;28;20194;-28
2021/06/26 07:14:04;;;;;;;5.67;5.10;;;18.70;71.60;;;;;;10419687;28;20202;-29
2021/06/26 07:19:27;;;;;;;5.97;5.43;;;18.70;71.50;;;;;;10417348;28;20231;-29
2021/06/26 07:24:49;;;;;;;6.40;4.70;;;18.70;71.50;;;;;;10452412;28;20189;-28
2021/06/26 07:30:12;;;;;;;10.33;5.50;;;18.70;71.30;;;;;;10441153;28;20209;-28
2021/06/26 07:35:36;;;;;;;5.97;4.90;;;18.80;70.80;;;;;;10411974;28;20197;-28
2021/06/26 07:40:58;;;;;;;5.00;4.60;;;18.80;70.50;;;;;;10411704;28;20233;-29
2021/06/26 07:46:20;;;;;;;6.43;5.30;;;18.90;70.40;;;;;;10411122;28;20205;-29
2021/06/26 07:51:43;;;;;;;5.03;4.53;;;18.90;69.70;;;;;;10412359;28;20228;-29
2021/06/26 07:57:06;;;;;;;4.97;4.47;;;18.90;69.60;;;;;;10445786;28;20866;-29
2021/06/26 08:02:28;;;;;;;4.30;3.90;;;18.90;69.80;;;;;;10450561;28;20224;-30
2021/06/26 08:07:52;;;;;;;3.80;3.50;;;19.00;69.90;;;;;;10426892;28;20666;-28
2021/06/26 08:13:14;;;;;;;4.73;4.27;;;19.00;69.80;;;;;;10410543;28;20288;-28
2021/06/26 08:18:36;;;;;;;4.17;3.87;;;19.00;69.20;;;;;;10427022;28;20232;-29
2021/06/26 08:24:00;;;;;;;6.27;4.03;;;19.00;69.10;;;;;;10488192;28;20659;-29
2021/06/26 08:29:22;;;;;;;4.50;4.10;;;19.10;69.20;;;;;;10492777;28;20219;-29
2021/06/26 08:34:44;;;;;;;5.27;4.57;;;19.10;68.80;;;;;;10483492;28;20200;-27
2021/06/26 08:40:08;;;;;;;5.97;3.90;;;19.10;68.20;;;;;;10499766;28;20212;-27
2021/06/26 08:45:31;;;;;;;4.83;3.97;;;19.10;67.50;;;;;;10478682;28;20197;-27
2021/06/26 08:50:53;;;;;;;6.37;4.10;;;19.10;67.70;;;;;;10456356;28;20220;-28
2021/06/26 08:56:16;;;;;;;7.07;4.60;;;19.20;67.10;;;;;;10457720;28;20212;-29
2021/06/26 09:01:40;;;;;;;6.37;5.13;;;19.20;66.80;;;;;;10456870;28;20224;-30
2021/06/26 09:07:03;;;;;;;9.13;4.80;;;19.30;65.30;;;;;;10474832;28;20204;-29
2021/06/26 09:12:27;;;;;;;4.63;4.20;;;19.30;65.80;;;;;;10471552;28;20223;-28
2021/06/26 09:17:49;;;;;;;4.83;4.37;;;19.30;66.30;;;;;;10496638;28;20231;-29
2021/06/26 09:23:19;;;;;;;4.73;4.20;;;19.30;66.40;;;;;;10482422;28;20216;-28
2021/06/26 09:28:43;;;;;;;9.10;4.40;;;19.40;66.10;;;;;;10472770;28;20580;-29
2021/06/26 09:34:06;;;;;;;6.27;4.33;;;19.40;66.10;;;;;;10456813;28;20694;-27
2021/06/26 09:39:34;;;;;;;4.60;4.20;;;19.40;65.80;;;;;;10456627;28;20235;-27
2021/06/26 09:44:59;;;;;;;5.07;4.40;;;19.40;65.50;;;;;;10456931;28;20228;-28
2021/06/26 09:50:23;;;;;;;5.37;4.20;;;19.40;65.80;;;;;;10490387;28;20698;-27
2021/06/26 09:55:53;;;;;;;5.73;3.80;;;19.40;65.10;;;;;;10497388;28;20223;-29
2021/06/26 10:01:16;;;;;;;5.07;3.40;;;19.40;65.50;;;;;;10474025;28;20596;-28
2021/06/26 10:06:38;;;;;;;4.53;4.10;;;19.40;65.60;;;;;;10468717;28;20199;-28
2021/06/26 10:12:01;;;;;;;3.70;3.40;;;19.40;66.20;;;;;;10497736;28;20222;-27
2021/06/26 10:17:25;;;;;;;4.10;3.67;;;19.40;66.00;;;;;;10487049;28;20216;-29
2021/06/26 10:22:49;;;;;;;3.83;3.53;;;19.50;66.20;;;;;;10482090;28;20224;-29
2021/06/26 10:28:13;;;;;;;3.70;3.40;;;19.40;66.20;;;;;;10475839;28;20518;-28
2021/06/26 10:33:36;;;;;;;4.53;3.63;;;19.40;66.30;;;;;;10470119;28;20193;-28
2021/06/26 10:38:59;;;;;;;3.73;3.43;;;19.40;66.40;;;;;;10454323;28;20224;-27
2021/06/26 10:44:21;;;;;;;4.73;3.47;;;19.40;66.60;;;;;;10467453;28;20677;-29
2021/06/26 10:49:45;;;;;;;3.77;3.47;;;19.40;66.60;;;;;;10454416;28;20692;-28
2021/06/26 10:55:07;;;;;;;3.50;3.20;;;19.40;66.60;;;;;;10451481;28;20205;-30
2021/06/26 11:00:34;;;;;;;3.93;3.40;;;19.50;66.50;;;;;;10448238;28;20472;-28
2021/06/26 11:05:59;;;;;;;3.83;3.43;;;19.40;66.90;;;;;;10456273;28;20572;-29
2021/06/26 11:11:31;;;;;;;4.43;3.37;;;19.40;66.70;;;;;;10488401;28;20233;-28
2021/06/26 11:16:55;;;;;;;3.37;3.07;;;19.40;67.10;;;;;;10447797;28;20668;-29
2021/06/26 11:22:19;;;;;;;3.67;3.37;;;19.40;67.50;;;;;;10446019;28;20232;-29
2021/06/26 11:27:41;;;;;;;3.57;3.27;;;19.40;66.60;;;;;;10444043;28;20699;-29
2021/06/26 11:33:03;;;;;;;3.30;3.00;;;19.40;67.60;;;;;;10425122;28;20684;-30
2021/06/26 11:38:27;;;;;;;3.80;3.00;;;19.50;67.00;;;;;;10426426;28;20593;-29
2021/06/26 11:43:50;;;;;;;3.47;3.10;;;19.50;67.00;;;;;;10420323;28;20216;-27
2021/06/26 11:49:12;;;;;;;3.07;2.87;;;19.50;67.10;;;;;;10450576;28;20216;-30
2021/06/26 11:54:35;;;;;;;3.90;3.00;;;19.50;66.80;;;;;;10449988;28;20700;-28
2021/06/26 11:59:58;;;;;;;3.30;3.00;;;19.50;66.90;;;;;;10451334;28;20603;-28
2021/06/26 12:05:21;;;;;;;2.97;2.70;;;19.50;66.90;;;;;;10449784;28;20201;-27
2021/06/26 12:10:46;;;;;;;3.07;2.83;;;19.50;67.30;;;;;;10447803;28;20213;-28
2021/06/26 12:16:08;;;;;;;3.20;2.80;;;19.50;67.50;;;;;;10423168;28;20604;-29
2021/06/26 12:21:41;;;;;;;3.17;2.93;;;19.50;67.10;;;;;;10502772;23;20323;-27
2021/06/26 12:27:11;;;;;;;3.13;2.83;;;19.50;67.00;;;;;;10534070;28;20191;-28
2021/06/26 12:32:34;;;;;;;3.07;2.87;;;19.50;67.50;;;;;;10473197;28;20580;-28
2021/06/26 12:37:57;;;;;;;3.30;3.03;;;19.50;67.50;;;;;;10468994;28;20195;-26
2021/06/26 12:43:20;;;;;;;3.67;3.00;;;19.50;67.10;;;;;;10479920;28;20213;-27
2021/06/26 12:48:45;;;;;;;3.43;3.13;;;19.50;67.40;;;;;;10469494;28;20195;-27
2021/06/26 12:54:09;;;;;;;4.33;3.47;;;19.50;67.50;;;;;;10487627;28;20231;-27
2021/06/26 12:59:34;;;;;;;3.87;3.50;;;19.50;68.40;;;;;;10458708;28;20217;-26
2021/06/26 13:04:56;;;;;;;3.40;3.00;;;19.50;68.00;;;;;;10465928;28;20611;-27
2021/06/26 13:10:18;;;;;;;8.33;3.63;;;19.50;68.00;;;;;;10477163;28;20217;-26
2021/06/26 13:15:41;;;;;;;3.50;3.20;;;19.50;67.00;;;;;;10456904;28;20192;-27
2021/06/26 13:21:11;;;;;;;5.03;3.50;;;19.50;67.20;;;;;;10465991;28;20227;-26
2021/06/26 13:26:33;;;;;;;4.73;3.87;;;19.50;66.60;;;;;;10492677;28;20314;-26
2021/06/26 13:31:56;;;;;;;4.33;3.77;;;19.60;66.60;;;;;;10487613;28;20216;-26
2021/06/26 13:37:19;;;;;;;3.70;3.37;;;19.60;66.80;;;;;;10497671;28;20208;-26
2021/06/26 13:42:41;;;;;;;3.83;3.13;;;19.60;66.80;;;;;;10496638;28;20228;-26
2021/06/26 13:48:05;;;;;;;6.27;3.37;;;19.60;66.60;;;;;;10492108;28;20196;-26
2021/06/26 13:53:27;;;;;;;7.33;3.13;;;19.60;67.10;;;;;;10455354;28;20213;-26
2021/06/26 13:58:50;;;;;;;6.97;3.47;;;19.50;66.90;;;;;;10455010;28;20216;-27
2021/06/26 14:04:13;;;;;;;3.00;2.70;;;19.60;67.00;;;;;;10456703;28;20229;-26
2021/06/26 14:09:35;;;;;;;4.73;3.07;;;19.50;66.70;;;;;;10495574;28;20219;-27
2021/06/26 14:14:57;;;;;;;5.57;3.10;;;19.60;67.00;;;;;;10494826;28;20663;-28
2021/06/26 14:20:21;;;;;;;3.17;2.83;;;19.60;67.50;;;;;;10487379;28;20221;-26
2021/06/26 14:25:43;;;;;;;3.37;2.70;;;19.60;67.20;;;;;;10454293;28;20229;-26
2021/06/26 14:31:05;;;;;;;3.10;2.90;;;19.60;67.50;;;;;;10469500;28;20212;-27
2021/06/26 14:36:29;;;;;;;6.17;3.20;;;19.60;68.20;;;;;;10495236;28;20691;-27
2021/06/26 14:41:51;;;;;;;3.20;2.70;;;19.60;67.80;;;;;;10495506;28;20227;-28
2021/06/26 14:47:14;;;;;;;3.53;2.93;;;19.60;68.50;;;;;;10472291;28;20572;-29
2021/06/26 14:52:37;;;;;;;4.27;3.20;;;19.60;68.10;;;;;;10481352;28;20217;-28
2021/06/26 14:57:59;;;;;;;3.13;2.83;;;19.70;68.70;;;;;;10453518;28;20189;-28
2021/06/26 15:03:21;;;;;;;3.67;3.37;;;19.60;68.00;;;;;;10454785;28;20214;-28
2021/06/26 15:08:45;;;;;;;4.97;2.87;;;19.70;68.20;;;;;;10463641;28;20197;-28
2021/06/26 15:14:07;;;;;;;3.73;3.10;;;19.60;67.90;;;;;;10468868;28;20220;-29
2021/06/26 15:19:29;;;;;;;3.80;3.40;;;19.70;68.10;;;;;;10492401;28;20216;-28
2021/06/26 15:24:52;;;;;;;3.83;3.03;;;19.70;67.90;;;;;;10464255;28;20196;-28
2021/06/26 15:30:17;;;;;;;3.33;3.10;;;19.70;68.00;;;;;;10473900;28;20702;-27
2021/06/26 15:35:39;;;;;;;3.67;3.37;;;19.70;68.30;;;;;;10493338;28;20567;-28
2021/06/26 15:41:04;;;;;;;4.60;3.23;;;19.70;67.90;;;;;;10491279;28;20808;-28
2021/06/26 15:46:27;;;;;;;3.67;3.37;;;19.70;68.20;;;;;;10492991;28;20207;-27
2021/06/26 15:51:49;;;;;;;3.30;3.03;;;19.70;68.30;;;;;;10492420;28;20580;-27
2021/06/26 15:57:12;;;;;;;3.73;2.87;;;19.60;68.30;;;;;;10493081;28;20571;-28
2021/06/26 16:02:35;;;;;;;3.07;2.77;;;19.70;68.50;;;;;;10492100;28;20730;-28
2021/06/26 16:07:57;;;;;;;3.23;2.93;;;19.60;68.50;;;;;;10482580;28;20703;-28
2021/06/26 16:13:20;;;;;;;2.80;2.53;;;19.70;68.30;;;;;;10451945;28;20209;-28
2021/06/26 16:18:42;;;;;;;3.00;2.80;;;19.60;68.40;;;;;;10450979;28;20193;-27
2021/06/26 16:24:05;;;;;;;2.90;2.70;;;19.60;68.30;;;;;;10489743;28;20223;-28
2021/06/26 16:29:29;;;;;;;4.23;2.77;;;19.70;69.20;;;;;;10491984;28;20193;-28
2021/06/26 16:34:51;;;;;;;4.50;3.57;;;19.60;68.80;;;;;;10480945;28;20670;-28
2021/06/26 16:40:14;;;;;;;3.97;3.40;;;19.60;68.80;;;;;;10490891;28;20227;-28
2021/06/26 16:45:37;;;;;;;4.50;3.03;;;19.70;68.60;;;;;;10492269;28;20203;-27
2021/06/26 16:51:00;;;;;;;5.17;3.20;;;19.60;68.80;;;;;;10490167;28;20212;-28
2021/06/26 16:56:23;;;;;;;5.90;3.10;;;19.70;69.30;;;;;;10491754;28;20205;-28
2021/06/26 17:01:47;;;;;;;7.57;3.67;;;19.70;68.90;;;;;;10489962;28;20219;-28
2021/06/26 17:07:09;;;;;;;4.90;3.33;;;19.60;69.00;;;;;;10491389;28;20199;-28
2021/06/26 17:12:31;;;;;;;3.30;3.00;;;19.70;69.80;;;;;;10470413;28;20215;-28
2021/06/26 17:17:55;;;;;;;4.87;3.70;;;19.70;69.30;;;;;;10468921;28;20196;-28
2021/06/26 17:23:18;;;;;;;5.47;3.67;;;19.70;69.10;;;;;;10466610;28;20898;-29
2021/06/26 17:28:42;;;;;;;3.43;3.13;;;19.70;69.00;;;;;;10455190;28;20196;-27
2021/06/26 17:34:05;;;;;;;4.30;3.50;;;19.60;69.20;;;;;;10453035;28;20217;-28
2021/06/26 17:39:27;;;;;;;3.77;3.47;;;19.70;69.00;;;;;;10469506;28;20212;-28
2021/06/26 17:44:50;;;;;;;3.60;3.27;;;19.70;69.20;;;;;;10491420;28;20589;-26
2021/06/26 17:50:15;;;;;;;8.07;3.20;;;19.60;69.60;;;;;;10490292;28;20216;-28
2021/06/26 17:55:39;;;;;;;4.60;3.60;;;19.70;69.50;;;;;;10486717;28;20196;-28
2021/06/26 18:01:02;;;;;;;3.90;3.57;;;19.70;69.70;;;;;;10466169;28;20728;-26
2021/06/26 18:06:26;;;;;;;4.40;3.60;;;19.70;70.00;;;;;;10446814;28;20201;-28
2021/06/26 18:11:48;;;;;;;3.40;3.10;;;19.70;70.00;;;;;;10446706;28;20221;-29
2021/06/26 18:17:10;;;;;;;3.63;3.27;;;19.70;70.20;;;;;;10446357;28;20202;-26
2021/06/26 18:22:34;;;;;;;4.13;3.73;;;19.70;70.20;;;;;;10476075;28;20273;-28
2021/06/26 18:27:57;;;;;;;6.10;3.80;;;19.70;70.10;;;;;;10568885;22;20231;-29
2021/06/26 18:33:19;;;;;;;4.17;3.77;;;19.70;70.80;;;;;;10567926;28;20190;-29
2021/06/26 18:38:42;;;;;;;5.30;3.97;;;19.70;70.40;;;;;;10515495;28;20204;-28
2021/06/26 18:44:05;;;;;;;4.20;3.80;;;19.70;70.40;;;;;;10503066;28;20243;-29
2021/06/26 18:49:28;;;;;;;6.37;3.83;;;19.70;70.60;;;;;;10520385;28;20200;-30
2021/06/26 18:54:51;;;;;;;6.27;3.83;;;19.70;70.70;;;;;;10536419;28;20294;-29
2021/06/26 19:00:15;;;;;;;10.87;4.00;;;19.70;71.20;;;;;;10513840;28;20227;-28
2021/06/26 19:05:37;;;;;;;7.33;4.47;;;19.70;70.80;;;;;;10492747;28;20209;-29
2021/06/26 19:11:02;;;;;;;13.10;4.87;;;19.70;71.10;;;;;;10500325;28;20679;-27
2021/06/26 19:16:24;;;;;;;8.53;4.00;;;19.70;71.30;;;;;;10531157;28;20218;-30
2021/06/26 19:21:47;;;;;;;6.37;3.93;;;19.70;71.30;;;;;;10513684;28;20223;-29
2021/06/26 19:27:11;;;;;;;5.10;4.30;;;19.70;71.40;;;;;;10495210;28;20228;-29
2021/06/26 19:32:33;;;;;;;4.20;3.60;;;19.70;71.50;;;;;;10494686;28;20193;-28
2021/06/26 19:37:55;;;;;;;6.30;4.53;;;19.70;71.60;;;;;;10496672;28;20219;-29
2021/06/26 19:43:19;;;;;;;7.13;4.60;;;19.70;71.80;;;;;;10513834;28;20223;-28
2021/06/26 19:48:41;;;;;;;5.10;4.57;;;19.70;72.10;;;;;;10493212;28;20199;-28
2021/06/26 19:54:03;;;;;;;4.70;4.30;;;19.70;72.10;;;;;;10493886;28;20227;-28
2021/06/26 19:59:26;;;;;;;5.17;3.87;;;19.70;72.20;;;;;;10526607;28;20666;-30
2021/06/26 20:04:49;;;;;;;4.40;4.00;;;19.70;72.20;;;;;;10523387;28;20603;-30
2021/06/26 20:10:13;;;;;;;5.30;4.20;;;19.70;72.30;;;;;;10531917;28;20187;-29
2021/06/26 20:15:37;;;;;;;5.13;4.60;;;19.70;72.20;;;;;;10492653;28;20213;-28
2021/06/26 20:20:59;;;;;;;5.80;4.40;;;19.70;72.30;;;;;;10511719;28;20200;-28
2021/06/26 20:26:21;;;;;;;4.60;4.20;;;19.60;72.20;;;;;;10513272;28;20223;-30
2021/06/26 20:31:44;;;;;;;4.87;4.43;;;19.70;72.10;;;;;;10512474;28;20193;-29
2021/06/26 20:37:07;;;;;;;4.57;4.17;;;19.70;72.20;;;;;;10521650;28;20220;-27
2021/06/26 20:42:29;;;;;;;5.73;5.23;;;19.70;72.30;;;;;;10520829;28;20216;-28
2021/06/26 20:47:53;;;;;;;5.00;4.50;;;19.70;72.60;;;;;;10518163;28;20220;-28
2021/06/26 20:53:15;;;;;;;4.57;4.17;;;19.70;72.30;;;;;;10521078;28;20195;-27
2021/06/26 20:58:37;;;;;;;4.67;4.27;;;19.60;72.40;;;;;;10522340;28;20193;-27
2021/06/26 21:04:01;;;;;;;6.03;4.97;;;19.70;72.40;;;;;;10523148;28;20223;-30
2021/06/26 21:09:23;;;;;;;7.20;6.50;;;19.70;72.70;;;;;;10521677;28;20196;-32
2021/06/26 21:14:46;;;;;;;8.40;7.60;;;19.70;74.90;;;;;;10517825;28;20208;-31
2021/06/26 21:20:11;;;;;;;7.33;6.30;;;19.70;74.90;;;;;;10520709;28;20290;-30
2021/06/26 21:25:36;;;;;;;11.83;8.67;;;19.70;74.60;;;;;;10522285;28;20235;-29
2021/06/26 21:30:58;;;;;;;10.23;9.13;;;19.70;75.70;;;;;;10518247;28;20233;-28
2021/06/26 21:36:21;;;;;;;9.67;8.73;;;19.60;76.10;;;;;;10520889;28;20217;-30
2021/06/26 21:41:43;;;;;;;10.57;8.50;;;19.60;76.50;;;;;;10509985;28;20703;-29
2021/06/26 21:47:06;;;;;;;11.00;9.30;;;19.60;76.50;;;;;;10510273;28;20211;-30
2021/06/26 21:52:30;;;;;;;11.07;9.17;;;19.50;76.70;;;;;;10529061;28;20198;-31
2021/06/26 21:57:54;;;;;;;10.57;9.23;;;19.50;76.90;;;;;;10539222;28;20212;-28
2021/06/26 22:03:17;;;;;;;10.90;9.80;;;19.50;77.00;;;;;;10519946;28;20656;-29
2021/06/26 22:08:41;;;;;;;11.80;10.57;;;19.40;77.00;;;;;;10511328;28;20208;-29
2021/06/26 22:14:03;;;;;;;10.33;9.37;;;19.40;77.10;;;;;;10499304;28;20235;-28
2021/06/26 22:19:25;;;;;;;9.87;8.83;;;19.40;76.90;;;;;;10505589;28;20662;-30
2021/06/26 22:24:49;;;;;;;10.50;9.50;;;19.40;76.80;;;;;;10508468;28;20215;-28
2021/06/26 22:30:13;;;;;;;10.47;9.30;;;19.40;76.80;;;;;;10537545;28;20682;-31
2021/06/26 22:35:36;;;;;;;11.97;9.50;;;19.30;76.90;;;;;;10536956;28;20207;-29
2021/06/26 22:41:00;;;;;;;9.83;8.83;;;19.30;77.10;;;;;;10534460;28;20216;-30
2021/06/26 22:46:22;;;;;;;9.57;7.80;;;19.20;77.20;;;;;;10535128;28;20212;-29
2021/06/26 22:51:44;;;;;;;9.97;8.20;;;19.20;76.90;;;;;;10513851;28;20192;-30
2021/06/26 22:57:08;;;;;;;8.57;7.73;;;19.30;76.60;;;;;;10505818;28;20564;-30
2021/06/26 23:02:30;;;;;;;9.70;7.27;;;19.30;76.50;;;;;;10505378;28;20222;-30
2021/06/26 23:07:53;;;;;;;9.07;8.17;;;19.30;75.70;;;;;;10522042;28;20223;-30
2021/06/26 23:13:17;;;;;;;8.33;7.53;;;19.30;75.50;;;;;;10495434;28;20192;-28
2021/06/26 23:18:39;;;;;;;7.67;6.90;;;19.40;75.40;;;;;;10516602;28;20207;-28
2021/06/26 23:24:01;;;;;;;6.97;6.27;;;19.40;75.00;;;;;;10496812;28;20223;-29
2021/06/26 23:29:24;;;;;;;6.80;6.07;;;19.40;75.00;;;;;;10509830;28;20196;-28
2021/06/26 23:34:46;;;;;;;8.57;7.17;;;19.30;74.90;;;;;;10530425;28;20591;-30
2021/06/26 23:40:12;;;;;;;6.97;6.27;;;19.30;75.20;;;;;;10532977;28;20192;-30
2021/06/26 23:45:39;;;;;;;7.53;6.67;;;19.30;74.90;;;;;;10534568;28;20211;-29
2021/06/26 23:51:01;;;;;;;6.70;6.00;;;19.30;75.10;;;;;;10532946;28;20187;-30
2021/06/26 23:56:24;;;;;;;7.83;6.87;;;19.30;74.80;;;;;;10524206;28;20223;-29
